ěÝzenÝ letovÚho provozu ╚eskÚ republiky
Letiste: LKCV Aktualizace: 27.10.2020 00:27:24  UTC
 METAR LKCV 27.10. 00:30 ...
METAR LKCV 270030Z 26006KT 4000 -DZ BR SCT010 BKN012 OVC018 09/08 Q1009 NOSIG RMK GRN GRN=
 TAF LKCV 26.10. 23:00 ...
TAF LKCV 262300Z 2700/2800 26008KT 9999 OVC020      TEMPO 2700/2713 6000 RA SCT008 OVC012      PROB40 TEMPO 2700/2709 3000 RA BR BKN007      BECMG 2714/2717 8000 SCT015=